This is the latest recevied weather packets stored in our database for station/object IU1OLT-7. If no packets are shown the sender has not sent any weather packets the latest 10 day(s).
| Time | Temp. | Humidity | Pressure | Rain* | Wind** | Luminosity | Snow |
|---|---|---|---|---|---|---|---|
| 1787800147 | 23.89° C | 63% | 1023.5 hPa | - | - | - | - |
| 1787799247 | 22.78° C | 64% | 1023.4 hPa | - | - | - | - |
| 1787798347 | 23.89° C | 60% | 1023.5 hPa | - | - | - | - |
| 1787797447 | 25.56° C | 49% | 1023.8 hPa | - | - | - | - |
| 1787796547 | 25° C | 50% | 1023.6 hPa | - | - | - | - |
| 1787795647 | 25° C | 50% | 1023.5 hPa | - | - | - | - |
| 1787794747 | 26.67° C | 44% | 1023.4 hPa | - | - | - | - |
| 1787793847 | 26.67° C | 44% | 1023.2 hPa | - | - | - | - |
| 1787792947 | 24.44° C | 46% | 1023.1 hPa | - | - | - | - |
| 1787792047 | 26.67° C | 44% | 1023.2 hPa | - | - | - | - |
| 1787791147 | 24.44° C | 51% | 1023.1 hPa | - | - | - | - |
| 1787790247 | 25° C | 47% | 1023.3 hPa | - | - | - | - |
| 1787789341 | 23.89° C | 46% | 1023.4 hPa | - | - | - | - |
| 1787788441 | 27.22° C | 35% | 1023.7 hPa | - | - | - | - |
| 1787787541 | 26.67° C | 34% | 1024.1 hPa | - | - | - | - |
| 1787786641 | 26.67° C | 30% | 1024.1 hPa | - | - | - | - |
| 1787785741 | 26.67° C | 28% | 1024.2 hPa | - | - | - | - |
| 1787784842 | 26.11° C | 33% | 1024.3 hPa | - | - | - | - |
| 1787783941 | 26.11° C | 33% | 1024.1 hPa | - | - | - | - |
| 1787783041 | 25° C | 33% | 1024.2 hPa | - | - | - | - |
| 1787782141 | 23.89° C | 33% | 1024.1 hPa | - | - | - | - |
| 1787781241 | 23.89° C | 34% | 1024 hPa | - | - | - | - |
| 1787780342 | 25° C | 32% | 1024.1 hPa | - | - | - | - |
| 1787779441 | 22.78° C | 36% | 1024 hPa | - | - | - | - |
| 1787778541 | 25.56° C | 32% | 1024.3 hPa | - | - | - | - |
* Rain since midnight (hover to see other rain measurements)
** Current wind speed in m/s (hover to see current wind gust speed)